createdAt,value
2019-04-21T00:00:20.247Z,54.22
2019-04-21T00:02:14.797Z,54.53
2019-04-21T00:03:18.154Z,54.41
2019-04-21T00:04:28.758Z,54.79
2019-04-21T00:08:03.630Z,55.27
2019-04-21T00:08:59.300Z,54.79
2019-04-21T00:09:58.266Z,54.99
2019-04-21T00:13:33.143Z,54.70
2019-04-21T00:14:30.266Z,54.50
2019-04-21T00:15:28.968Z,54.79
2019-04-21T00:16:25.580Z,55.18
2019-04-21T00:17:19.873Z,55.08
2019-04-21T00:18:17.395Z,55.08
2019-04-21T00:19:22.605Z,55.18
2019-04-21T00:21:12.219Z,55.18
2019-04-21T00:22:08.663Z,55.08
2019-04-21T00:23:19.382Z,55.08
2019-04-21T00:24:12.682Z,54.89
2019-04-21T00:25:13.965Z,55.08
2019-04-21T00:26:16.391Z,55.27
2019-04-21T00:27:18.708Z,55.08
2019-04-21T00:28:25.179Z,55.08
2019-04-21T00:29:26.806Z,55.08
2019-04-21T00:30:21.348Z,54.70
2019-04-21T00:31:15.709Z,55.08
2019-04-21T00:32:16.686Z,54.99
2019-04-21T00:38:25.044Z,54.60
2019-04-21T00:43:19.579Z,54.50
2019-04-21T00:45:16.556Z,54.38
2019-04-21T00:46:12.586Z,55.15
2019-04-21T00:47:25.072Z,54.96
2019-04-21T01:00:27.751Z,56.10
2019-04-21T01:01:25.276Z,56.10
2019-04-21T01:02:32.990Z,56.01
2019-04-21T01:03:46.369Z,56.20
2019-04-21T01:04:30.686Z,56.10
2019-04-21T01:08:41.374Z,57.06
2019-04-21T01:09:39.829Z,56.87
2019-04-21T01:10:34.674Z,57.06
2019-04-21T01:11:44.834Z,56.87
2019-04-21T01:12:44.523Z,56.38
2019-04-21T01:13:48.294Z,57.06
2019-04-21T01:22:17.712Z,58.26
2019-04-21T01:27:49.524Z,58.46
2019-04-21T01:31:08.789Z,58.75
2019-04-21T01:32:18.746Z,58.55
2019-04-21T01:33:16.937Z,58.55
2019-04-21T01:34:14.932Z,58.46
2019-04-21T01:35:16.023Z,58.65
2019-04-21T01:43:45.185Z,59.12
2019-04-21T01:44:48.003Z,59.60
2019-04-21T01:45:45.909Z,59.79
2019-04-21T01:46:45.597Z,60.27
2019-04-21T01:47:40.919Z,60.08
2019-04-21T01:51:18.742Z,60.17
2019-04-21T01:52:34.852Z,60.62
2019-04-21T01:57:33.320Z,60.43
2019-04-21T01:58:25.678Z,60.33
2019-04-21T01:59:27.043Z,60.72
2019-04-21T02:00:32.850Z,60.81
2019-04-21T02:01:33.284Z,60.52
2019-04-21T02:06:44.365Z,61.29
2019-04-21T02:07:44.787Z,61.19
2019-04-21T02:11:37.565Z,61.38
2019-04-21T02:12:34.094Z,61.67
2019-04-21T02:13:35.288Z,61.57
2019-04-21T02:14:41.231Z,61.48
2019-04-21T02:15:41.984Z,61.96
2019-04-21T02:16:40.499Z,61.86
2019-04-21T02:17:38.781Z,62.24
2019-04-21T02:18:33.934Z,62.15
2019-04-21T02:19:28.432Z,62.34
2019-04-21T02:20:25.715Z,62.34
2019-04-21T02:21:31.869Z,62.24
2019-04-21T02:22:54.919Z,62.05
2019-04-21T02:23:38.128Z,61.96
2019-04-21T02:25:51.048Z,62.05
2019-04-21T02:26:47.669Z,61.67
2019-04-21T02:29:03.306Z,62.24
2019-04-21T02:29:59.806Z,62.15
2019-04-21T02:31:17.003Z,62.05
2019-04-21T02:32:11.771Z,62.52
2019-04-21T02:33:08.768Z,62.72
2019-04-21T02:37:44.567Z,62.78
2019-04-21T02:38:40.479Z,62.49
2019-04-21T02:41:05.720Z,63.17
2019-04-21T02:42:09.738Z,62.78
2019-04-21T02:44:02.440Z,62.78
2019-04-21T02:44:35.948Z,62.88
2019-04-21T02:49:45.214Z,62.97
2019-04-21T02:51:33.895Z,63.35
2019-04-21T02:52:37.377Z,63.64
2019-04-21T02:54:03.771Z,63.26
2019-04-21T02:55:15.623Z,64.12
2019-04-21T02:56:18.084Z,63.45
2019-04-21T02:57:18.628Z,63.54
2019-04-21T02:58:41.701Z,63.83
2019-04-21T02:59:28.900Z,63.64
2019-04-21T03:01:23.535Z,63.83
2019-04-21T03:03:19.914Z,63.83
2019-04-21T03:05:48.847Z,64.12
2019-04-21T03:07:47.746Z,64.12
2019-04-21T03:09:46.168Z,64.50
2019-04-21T03:11:52.311Z,64.87
2019-04-21T03:12:56.884Z,64.78
2019-04-21T03:13:47.002Z,64.87
2019-04-21T03:14:56.000Z,64.69
2019-04-21T03:15:54.783Z,64.69
2019-04-21T03:16:47.113Z,65.16
2019-04-21T03:17:48.690Z,65.45
2019-04-21T03:20:55.016Z,65.45
2019-04-21T03:21:45.635Z,65.45
2019-04-21T03:23:57.403Z,65.92
2019-04-21T03:25:20.384Z,65.92
2019-04-21T03:26:48.689Z,66.11
2019-04-21T03:27:57.293Z,65.89
2019-04-21T03:28:42.251Z,66.18
2019-04-21T03:29:44.731Z,66.18
2019-04-21T03:31:06.389Z,65.99
2019-04-21T03:34:18.267Z,66.56
2019-04-21T03:37:35.362Z,67.03
2019-04-21T03:39:18.455Z,65.99
2019-04-21T03:43:42.605Z,67.03
2019-04-21T03:44:46.315Z,67.03
2019-04-21T03:46:53.082Z,66.18
2019-04-21T03:47:43.544Z,66.27
2019-04-21T03:59:09.083Z,66.56
2019-04-21T04:00:13.077Z,66.56
2019-04-21T04:01:05.894Z,67.03
2019-04-21T04:02:08.236Z,67.22
2019-04-21T04:06:25.966Z,68.94
2019-04-21T04:10:56.572Z,70.08
2019-04-21T04:12:26.253Z,70.05
2019-04-21T04:13:37.275Z,70.14
2019-04-21T04:14:44.468Z,69.76
2019-04-21T04:17:02.465Z,69.76
2019-04-21T04:17:46.133Z,69.95
2019-04-21T04:18:53.028Z,69.79
2019-04-21T04:19:45.446Z,70.05
2019-04-21T04:20:51.833Z,69.48
2019-04-21T04:22:56.433Z,69.19
2019-04-21T04:25:20.907Z,69.29
2019-04-21T04:26:24.459Z,68.90
2019-04-21T04:28:19.486Z,69.19
2019-04-21T04:34:41.159Z,69.19
2019-04-21T04:35:46.130Z,69.19
2019-04-21T04:37:37.769Z,69.85
2019-04-21T04:38:41.089Z,69.95
2019-04-21T04:39:42.881Z,69.38
2019-04-21T04:40:31.006Z,69.67
2019-04-21T04:41:52.769Z,69.95
2019-04-21T04:43:32.925Z,69.57
2019-04-21T04:45:48.400Z,69.00
2019-04-21T04:46:45.563Z,68.81
2019-04-21T04:47:36.969Z,69.19
2019-04-21T04:48:37.533Z,69.29
2019-04-21T04:54:49.150Z,68.81
2019-04-21T04:55:41.030Z,69.48
2019-04-21T04:56:38.374Z,70.18
2019-04-21T04:59:18.611Z,69.32
2019-04-21T05:03:50.945Z,69.51
2019-04-21T05:05:49.659Z,66.44
2019-04-21T05:10:54.483Z,58.54
2019-04-21T05:13:37.058Z,55.99
2019-04-21T05:14:39.360Z,55.80
2019-04-21T05:20:11.579Z,55.04
2019-04-21T05:21:24.754Z,55.54
2019-04-21T05:22:12.806Z,54.97
2019-04-21T06:11:28.883Z,49.66
2019-04-21T06:12:20.878Z,50.72
2019-04-21T06:14:20.385Z,51.07
2019-04-21T06:15:22.487Z,51.93
2019-04-21T06:16:21.480Z,51.24
2019-04-21T06:17:25.552Z,51.34
2019-04-21T06:18:27.261Z,52.48
2019-04-21T06:19:21.578Z,52.48
2019-04-21T06:20:20.728Z,52.01
2019-04-21T06:21:16.330Z,51.65
2019-04-21T06:22:13.776Z,50.98
2019-04-21T06:23:20.373Z,51.17
2019-04-21T06:24:17.370Z,51.65
2019-04-21T06:25:43.173Z,52.70
2019-04-21T06:26:44.837Z,51.36
2019-04-21T06:27:22.698Z,50.98
2019-04-21T06:28:19.203Z,50.31
2019-04-21T06:29:18.489Z,50.79
2019-04-21T06:30:19.523Z,50.70
2019-04-21T06:31:40.807Z,50.76
2019-04-21T06:32:30.397Z,50.76
2019-04-21T06:33:25.779Z,50.67
2019-04-21T06:38:22.240Z,49.38
2019-04-21T06:39:40.417Z,49.21
2019-04-21T06:40:30.402Z,47.58
2019-04-21T06:41:29.756Z,46.84
2019-04-21T06:42:13.555Z,46.10
2019-04-21T06:44:16.806Z,45.62
2019-04-21T06:45:20.148Z,45.62
2019-04-21T06:46:26.189Z,45.62
2019-04-21T06:47:30.004Z,45.62
2019-04-21T06:48:24.771Z,45.23
2019-04-21T06:49:17.221Z,45.62
2019-04-21T06:50:28.024Z,44.78
2019-04-21T06:51:24.073Z,44.68
2019-04-21T06:52:44.674Z,44.70
2019-04-21T06:53:20.767Z,44.80
2019-04-21T06:54:23.462Z,44.87
2019-04-21T06:55:21.586Z,44.11
2019-04-21T06:56:27.456Z,44.68
2019-04-21T06:57:24.433Z,44.90
2019-04-21T06:58:20.777Z,44.03
2019-04-21T06:59:13.429Z,43.84
2019-04-21T07:00:23.060Z,44.06
2019-04-21T07:01:22.988Z,42.43
2019-04-21T07:03:20.678Z,42.35
2019-04-21T07:05:21.689Z,41.49
2019-04-21T07:06:26.098Z,41.49
2019-04-21T07:07:17.771Z,41.02
2019-04-21T07:08:31.270Z,39.99
2019-04-21T07:09:29.452Z,38.68
2019-04-21T07:10:22.482Z,37.89
2019-04-21T07:11:16.946Z,38.22
2019-04-21T07:12:18.667Z,37.35
2019-04-21T07:13:14.055Z,37.45
2019-04-21T07:15:22.388Z,36.85
2019-04-21T07:16:21.929Z,36.49
2019-04-21T07:17:24.594Z,35.94
2019-04-21T07:18:19.539Z,35.19
2019-04-21T07:23:10.106Z,34.21
2019-04-21T07:24:48.173Z,34.77
2019-04-21T07:27:29.231Z,35.93
2019-04-21T07:28:32.138Z,35.56
2019-04-21T07:29:27.180Z,35.83
2019-04-21T07:41:12.350Z,39.14
2019-04-21T07:42:13.471Z,39.22
2019-04-21T07:43:13.678Z,39.99
2019-04-21T07:44:15.976Z,39.99
2019-04-21T07:46:03.717Z,40.64
2019-04-21T07:47:09.749Z,41.12
2019-04-21T07:49:06.405Z,41.50
2019-04-21T07:50:08.831Z,41.70
2019-04-21T07:51:14.254Z,41.50
2019-04-21T07:52:11.349Z,41.62
2019-04-21T07:53:19.582Z,41.64
2019-04-21T07:54:13.364Z,40.58
2019-04-21T07:55:20.007Z,40.78
2019-04-21T07:55:51.020Z,40.89
2019-04-21T07:57:00.591Z,40.53
2019-04-21T07:58:26.294Z,40.24
2019-04-21T07:59:27.215Z,39.86
2019-04-21T08:01:14.867Z,40.11
2019-04-21T08:02:15.981Z,40.97
2019-04-21T08:03:12.894Z,41.18
2019-04-21T08:04:20.816Z,40.80
2019-04-21T08:05:15.387Z,40.68
2019-04-21T08:06:16.315Z,40.61
2019-04-21T08:07:09.990Z,40.39
2019-04-21T08:07:58.012Z,41.06
2019-04-21T08:09:07.152Z,41.43
2019-04-21T08:10:07.684Z,41.16
2019-04-21T08:11:01.609Z,41.55
2019-04-21T08:12:04.431Z,41.86
2019-04-21T08:13:11.550Z,41.38
2019-04-21T08:14:24.023Z,41.35
2019-04-21T08:15:16.937Z,41.16
2019-04-21T08:16:10.992Z,41.64
2019-04-21T08:17:09.807Z,41.45
2019-04-21T08:18:09.240Z,41.45
2019-04-21T08:19:09.637Z,41.47
2019-04-21T08:20:11.386Z,41.47
2019-04-21T08:21:06.240Z,41.47
2019-04-21T08:22:11.002Z,41.56
2019-04-21T08:23:11.094Z,41.66
2019-04-21T08:24:13.394Z,41.56
2019-04-21T08:25:09.010Z,41.26
2019-04-21T08:27:10.867Z,41.35
2019-04-21T08:28:05.214Z,42.12
2019-04-21T08:29:12.721Z,42.32
2019-04-21T08:30:06.181Z,41.64
2019-04-21T08:31:09.549Z,42.60
2019-04-21T08:32:08.256Z,42.53
2019-04-21T08:33:20.922Z,42.22
2019-04-21T08:34:14.003Z,41.83
2019-04-21T08:35:20.681Z,42.22
2019-04-21T08:36:25.042Z,42.12
2019-04-21T08:37:03.975Z,42.12
2019-04-21T08:38:08.846Z,42.41
2019-04-21T08:39:06.562Z,42.33
2019-04-21T08:40:09.814Z,41.47
2019-04-21T08:41:08.667Z,41.47
2019-04-21T08:42:05.948Z,41.38
2019-04-21T08:43:08.828Z,41.45
2019-04-21T08:44:16.836Z,42.50
2019-04-21T08:45:10.788Z,42.22
2019-04-21T08:46:09.678Z,42.03
2019-04-21T08:47:09.382Z,41.45
2019-04-21T08:49:09.380Z,42.60
2019-04-21T08:50:08.258Z,42.41
2019-04-21T08:51:22.470Z,42.63
2019-04-21T08:52:13.742Z,42.43
2019-04-21T08:53:11.341Z,41.95
2019-04-21T08:54:11.888Z,42.43
2019-04-21T08:55:15.241Z,41.76
2019-04-21T08:56:10.314Z,42.55
2019-04-21T08:57:08.087Z,42.16
2019-04-21T08:58:15.759Z,42.16
2019-04-21T08:59:17.849Z,41.68
2019-04-21T09:00:16.360Z,41.49
2019-04-21T09:05:18.985Z,41.51
2019-04-21T09:06:27.374Z,42.28
2019-04-21T09:07:29.102Z,42.11
2019-04-21T09:08:21.660Z,41.24
2019-04-21T09:09:24.438Z,41.05
2019-04-21T09:10:18.501Z,40.47
2019-04-21T09:12:24.415Z,40.64
2019-04-21T09:13:17.227Z,40.55
2019-04-21T09:14:17.834Z,40.64
2019-04-21T09:15:18.942Z,40.94
2019-04-21T09:16:17.067Z,41.44
2019-04-21T09:17:19.203Z,40.95
2019-04-21T09:18:13.424Z,40.39
2019-04-21T09:19:34.009Z,40.11
2019-04-21T09:20:43.973Z,39.72
2019-04-21T09:21:21.892Z,39.43
2019-04-21T09:22:18.217Z,39.04
2019-04-21T09:23:19.438Z,39.34
2019-04-21T09:24:24.709Z,39.82
2019-04-21T09:25:26.750Z,39.14
2019-04-21T09:26:18.766Z,39.31
2019-04-21T09:27:14.208Z,39.31
2019-04-21T09:28:16.700Z,39.70
2019-04-21T09:29:10.946Z,40.09
2019-04-21T09:30:04.876Z,40.57
2019-04-21T09:31:04.818Z,39.89
2019-04-21T09:32:03.409Z,39.70
2019-04-21T09:33:03.432Z,39.22
2019-04-21T09:34:04.754Z,39.43
2019-04-21T09:35:03.439Z,39.72
2019-04-21T09:36:06.004Z,39.24
2019-04-21T09:37:16.458Z,39.24
2019-04-21T09:38:13.318Z,39.43
2019-04-21T09:39:09.476Z,39.34
2019-04-21T09:40:02.878Z,39.34
2019-04-21T09:41:02.652Z,39.74
2019-04-21T09:42:04.319Z,39.26
2019-04-21T09:43:07.642Z,39.18
2019-04-21T09:44:01.728Z,36.94
2019-04-21T09:45:04.228Z,36.75
2019-04-21T09:46:01.909Z,37.54
2019-04-21T09:47:51.029Z,36.96
2019-04-21T09:48:51.853Z,35.98
2019-04-21T09:49:45.102Z,35.96
2019-04-21T09:50:43.632Z,36.63
2019-04-21T09:51:43.810Z,37.62
2019-04-21T09:52:51.051Z,36.27
2019-04-21T10:03:08.121Z,35.63
2019-04-21T10:04:05.480Z,35.22
2019-04-21T10:05:02.499Z,35.90
2019-04-21T10:06:02.503Z,35.14
2019-04-21T10:07:02.538Z,36.01
2019-04-21T10:08:03.652Z,36.38
2019-04-21T10:09:04.683Z,36.38
2019-04-21T10:10:03.689Z,36.57
2019-04-21T10:11:03.258Z,33.98
2019-04-21T10:12:03.114Z,33.81
2019-04-21T10:13:02.870Z,33.63
2019-04-21T10:14:03.213Z,33.54
2019-04-21T10:15:02.538Z,33.25
2019-04-21T10:16:03.095Z,33.23
2019-04-21T10:17:03.072Z,33.42
2019-04-21T10:18:02.787Z,33.14
2019-04-21T10:19:02.633Z,33.63
2019-04-21T10:20:03.177Z,32.64
2019-04-21T10:21:03.216Z,33.50
2019-04-21T10:22:04.020Z,32.24
2019-04-21T10:23:02.941Z,32.07
2019-04-21T10:24:02.579Z,32.17
2019-04-21T10:25:02.990Z,31.80
2019-04-21T10:26:02.583Z,32.07
2019-04-21T10:27:05.303Z,32.64
2019-04-21T10:28:03.286Z,33.40
2019-04-21T10:29:08.538Z,33.52
2019-04-21T10:30:03.700Z,32.84
2019-04-21T10:31:02.750Z,32.26
2019-04-21T10:32:03.602Z,31.48
2019-04-21T10:33:03.922Z,32.15
2019-04-21T10:34:03.134Z,32.36
2019-04-21T10:35:03.276Z,32.07
2019-04-21T10:36:02.630Z,31.89
2019-04-21T10:37:02.878Z,32.18
2019-04-21T10:38:14.875Z,32.20
2019-04-21T10:39:04.079Z,32.76
2019-04-21T10:40:03.572Z,31.80
2019-04-21T10:41:03.545Z,31.59
2019-04-21T10:42:03.540Z,32.07
2019-04-21T10:43:03.802Z,32.94
2019-04-21T10:44:03.145Z,32.56
2019-04-21T10:45:03.337Z,32.09
2019-04-21T10:46:02.675Z,31.99
2019-04-21T10:47:02.709Z,32.07
2019-04-21T10:48:03.079Z,32.65
2019-04-21T10:49:02.687Z,32.56
2019-04-21T10:50:02.893Z,31.88
2019-04-21T10:51:03.237Z,32.07
2019-04-21T10:52:02.701Z,32.84
2019-04-21T10:53:03.018Z,32.17
2019-04-21T10:54:03.989Z,32.06
2019-04-21T10:55:17.654Z,32.04
2019-04-21T10:56:12.256Z,32.62
2019-04-21T10:57:02.721Z,32.44
2019-04-21T10:58:02.748Z,31.76
2019-04-21T10:59:02.736Z,31.67
2019-04-21T11:00:04.450Z,31.76
2019-04-21T11:01:04.092Z,31.96
2019-04-21T11:02:03.155Z,31.70
2019-04-21T11:03:02.749Z,30.25
2019-04-21T11:04:02.863Z,30.25
2019-04-21T11:05:02.998Z,29.86
2019-04-21T11:06:03.266Z,30.36
2019-04-21T11:07:06.698Z,30.38
2019-04-21T11:08:12.549Z,30.28
2019-04-21T11:09:03.693Z,30.39
2019-04-21T11:10:04.357Z,30.10
2019-04-21T11:11:03.731Z,29.05
2019-04-21T11:51:37.766Z,28.79
2019-04-21T11:52:38.857Z,29.27
2019-04-21T11:53:39.037Z,28.59
2019-04-21T11:58:57.783Z,29.63
2019-04-21T11:59:57.590Z,29.05
2019-04-21T12:00:57.908Z,29.24
2019-04-21T12:01:57.251Z,29.43
2019-04-21T12:27:02.274Z,25.02
2019-04-21T12:35:15.872Z,26.09
2019-04-21T12:37:56.383Z,23.47
2019-04-21T12:40:14.421Z,23.09
2019-04-21T12:43:54.987Z,23.39
2019-04-21T12:51:41.836Z,23.02
2019-04-21T12:59:48.725Z,22.22
2019-04-21T13:01:50.842Z,21.54
2019-04-21T13:02:48.097Z,22.02
2019-04-21T13:03:48.094Z,21.92
2019-04-21T13:04:49.651Z,22.68
2019-04-21T13:05:49.294Z,23.92
2019-04-21T13:06:48.120Z,23.83
2019-04-21T13:07:49.199Z,25.02
2019-04-21T13:08:55.694Z,24.44
2019-04-21T13:09:48.439Z,23.94
2019-04-21T13:10:48.524Z,24.88
2019-04-21T13:11:48.890Z,25.30
2019-04-21T13:12:48.181Z,23.85
2019-04-21T13:13:48.195Z,23.85
2019-04-21T13:14:49.537Z,24.15
2019-04-21T13:15:49.415Z,23.55
2019-04-21T13:16:49.586Z,24.23
2019-04-21T13:17:48.236Z,24.63
2019-04-21T13:18:49.223Z,24.63
2019-04-21T13:19:49.414Z,25.03
2019-04-21T13:20:48.526Z,24.65
2019-04-21T13:21:48.279Z,23.66
2019-04-21T13:22:48.287Z,23.76
2019-04-21T13:23:49.172Z,23.47
2019-04-21T13:24:49.550Z,24.15
2019-04-21T13:25:48.320Z,24.16
2019-04-21T13:26:53.659Z,24.26
2019-04-21T13:27:49.201Z,24.52
2019-04-21T13:28:48.349Z,26.14
2019-04-21T13:29:48.362Z,26.99
2019-04-21T13:30:48.698Z,26.90
2019-04-21T13:31:48.382Z,27.10
2019-04-21T13:32:49.248Z,26.32
2019-04-21T13:33:48.403Z,26.81
2019-04-21T13:34:48.410Z,26.81
2019-04-21T13:35:48.832Z,26.04
2019-04-21T13:36:49.722Z,26.23
2019-04-21T13:37:50.557Z,26.81
2019-04-21T13:39:22.118Z,25.95
2019-04-21T13:40:16.449Z,25.95
2019-04-21T13:41:02.116Z,25.15
2019-04-21T13:42:00.235Z,26.12
2019-04-21T13:42:55.001Z,25.93
2019-04-21T13:43:48.497Z,26.31
2019-04-21T13:44:48.847Z,26.31
2019-04-21T13:45:49.835Z,26.01
2019-04-21T13:46:49.207Z,26.03
2019-04-21T13:47:48.623Z,26.31
2019-04-21T13:48:48.542Z,25.15
2019-04-21T13:49:49.542Z,25.15
2019-04-21T13:50:49.085Z,25.14
2019-04-21T13:51:49.957Z,25.25
2019-04-21T13:52:48.944Z,25.15
2019-04-21T13:53:49.453Z,25.05
2019-04-21T13:54:49.612Z,24.39
2019-04-21T13:55:48.735Z,24.19
2019-04-21T13:56:50.295Z,23.53
2019-04-21T13:57:48.625Z,23.33
2019-04-21T13:58:48.634Z,24.11
2019-04-21T13:59:49.484Z,24.32
2019-04-21T14:00:50.549Z,23.93
2019-04-21T14:01:49.763Z,23.74
2019-04-21T14:02:48.986Z,23.83
2019-04-21T14:03:49.439Z,24.69
2019-04-21T14:04:49.674Z,24.30
2019-04-21T14:05:48.712Z,23.91
2019-04-21T14:06:49.985Z,24.67
2019-04-21T14:07:50.018Z,24.96
2019-04-21T14:08:50.371Z,24.86
2019-04-21T14:09:57.018Z,24.77
2019-04-21T14:12:23.606Z,24.77
2019-04-21T14:13:24.606Z,25.43
2019-04-21T14:17:54.853Z,25.25
2019-04-21T14:18:55.142Z,24.86
2019-04-21T14:19:55.239Z,24.28
2019-04-21T14:21:55.212Z,24.76
2019-04-21T14:22:55.741Z,25.25
2019-04-21T14:23:55.964Z,25.25
2019-04-21T14:24:54.409Z,25.65
2019-04-21T14:25:55.462Z,24.78
2019-04-21T14:26:54.435Z,24.19
2019-04-21T14:27:55.704Z,24.67
2019-04-21T14:28:54.669Z,24.97
2019-04-21T14:29:55.565Z,24.97
2019-04-21T14:30:54.448Z,25.07
2019-04-21T14:31:55.915Z,24.88
2019-04-21T14:32:54.458Z,23.70
2019-04-21T14:33:54.469Z,23.02
2019-04-21T14:35:54.774Z,22.33
2019-04-21T14:36:55.022Z,21.47
2019-04-21T14:37:54.485Z,21.08
2019-04-21T14:38:54.538Z,21.37
2019-04-21T14:40:01.800Z,20.31
2019-04-21T14:40:54.504Z,20.99
2019-04-21T14:41:55.975Z,21.96
2019-04-21T14:42:54.519Z,22.16
2019-04-21T14:43:55.160Z,22.44
2019-04-21T14:44:54.749Z,22.74
2019-04-21T14:45:54.829Z,23.03
2019-04-21T14:46:55.324Z,24.10
2019-04-21T14:47:54.536Z,24.49
2019-04-21T14:48:55.037Z,24.78
2019-04-21T14:49:55.223Z,24.49
2019-04-21T14:50:54.670Z,24.58
2019-04-21T14:51:54.853Z,24.29
2019-04-21T14:52:54.780Z,24.29
2019-04-21T14:53:56.181Z,24.49
2019-04-21T14:54:54.573Z,23.81
2019-04-21T14:55:55.330Z,23.80
2019-04-21T14:56:55.561Z,23.22
2019-04-21T14:57:54.913Z,23.22
2019-04-21T14:58:57.248Z,22.34
2019-04-21T14:59:55.156Z,21.86
2019-04-21T15:00:55.694Z,21.56
2019-04-21T15:01:55.746Z,21.27
2019-04-21T15:02:55.835Z,22.43
2019-04-21T15:03:55.468Z,22.33
2019-04-21T15:04:55.645Z,22.53
2019-04-21T15:05:55.701Z,22.63
2019-04-21T15:06:55.042Z,22.24
2019-04-21T15:07:55.152Z,22.53
2019-04-21T15:08:55.496Z,21.85
2019-04-21T15:10:05.791Z,22.24
2019-04-21T15:10:54.967Z,22.24
2019-04-21T15:11:56.030Z,21.96
2019-04-21T15:12:56.011Z,22.25
2019-04-21T15:13:55.936Z,22.05
2019-04-21T15:14:56.007Z,22.43
2019-04-21T15:15:56.153Z,23.22
2019-04-21T15:16:54.673Z,22.74
2019-04-21T15:17:55.739Z,22.92
2019-04-21T15:18:54.761Z,23.12
2019-04-21T15:19:59.789Z,23.01
2019-04-21T15:20:55.270Z,22.72
2019-04-21T15:21:54.711Z,22.91
2019-04-21T15:22:54.697Z,22.91
2019-04-21T15:23:56.171Z,22.53
2019-04-21T15:24:56.234Z,22.43
2019-04-21T15:25:54.708Z,22.14
2019-04-21T15:26:54.828Z,22.63
2019-04-21T15:27:55.043Z,23.11
2019-04-21T15:28:54.991Z,23.69
2019-04-21T15:29:54.730Z,23.69
2019-04-21T15:30:54.730Z,23.88
2019-04-21T15:31:54.742Z,24.38
2019-04-21T15:32:54.851Z,23.80
2019-04-21T15:33:54.954Z,23.70
2019-04-21T15:34:56.053Z,23.30
2019-04-21T15:35:55.393Z,23.01
2019-04-21T15:36:55.606Z,23.11
2019-04-21T15:37:55.900Z,22.72
2019-04-21T15:38:56.139Z,22.24
2019-04-21T15:39:54.766Z,22.43
2019-04-21T15:40:58.028Z,22.72
2019-04-21T15:41:54.775Z,22.91
2019-04-21T15:42:54.779Z,23.30
2019-04-21T15:43:54.782Z,22.82
2019-04-21T15:44:54.790Z,22.82
2019-04-21T15:45:54.861Z,23.11
2019-04-21T15:46:55.647Z,23.79
2019-04-21T15:47:55.947Z,22.72
2019-04-21T15:48:55.173Z,23.11
2019-04-21T15:50:01.148Z,23.69
2019-04-21T15:50:54.815Z,24.09
2019-04-21T15:51:55.916Z,24.18
2019-04-21T15:52:55.889Z,24.57
2019-04-21T15:53:55.611Z,24.18
2019-04-21T15:54:54.829Z,23.22
2019-04-21T15:55:55.037Z,23.90
2019-04-21T15:56:54.839Z,23.40
2019-04-21T15:57:54.839Z,23.98
2019-04-21T15:58:54.848Z,24.17
2019-04-21T15:59:55.045Z,23.88
2019-04-21T16:00:54.855Z,24.17
2019-04-21T16:01:54.857Z,23.88
2019-04-21T16:02:54.906Z,24.17
2019-04-21T16:03:57.433Z,23.98
2019-04-21T16:04:54.977Z,24.37
2019-04-21T16:05:55.795Z,24.76
2019-04-21T16:06:55.469Z,24.37
2019-04-21T16:07:56.055Z,23.98
2019-04-21T16:08:57.486Z,24.07
2019-04-21T16:09:54.889Z,24.55
2019-04-21T16:10:59.893Z,24.65
2019-04-21T16:11:55.811Z,24.65
2019-04-21T16:12:55.988Z,24.55
2019-04-21T16:13:55.479Z,24.93
2019-04-21T16:14:54.912Z,25.61
2019-04-21T16:15:54.917Z,24.55
2019-04-21T16:16:54.921Z,24.45
2019-04-21T16:17:55.274Z,24.65
2019-04-21T16:18:56.157Z,24.93
2019-04-21T16:19:56.186Z,24.76
2019-04-21T16:20:55.775Z,24.55
2019-04-21T16:21:54.937Z,24.55
2019-04-21T16:22:54.994Z,24.65
2019-04-21T16:23:56.250Z,24.17
2019-04-21T16:24:54.951Z,24.27
2019-04-21T16:25:54.980Z,23.98
2019-04-21T16:26:56.443Z,24.08
2019-04-21T16:27:55.291Z,23.77
2019-04-21T16:28:55.273Z,24.16
2019-04-21T16:29:54.978Z,24.16
2019-04-21T16:30:56.218Z,23.77
2019-04-21T16:31:55.338Z,23.77
2019-04-21T16:32:56.251Z,24.16
2019-04-21T16:33:54.991Z,24.26
2019-04-21T16:35:02.770Z,24.16
2019-04-21T16:35:56.010Z,24.65
2019-04-21T16:36:55.926Z,24.55
2019-04-21T16:37:57.245Z,24.16
2019-04-21T16:38:55.605Z,24.16
2019-04-21T16:39:55.707Z,23.97
2019-04-21T16:41:00.897Z,23.97
2019-04-21T16:41:56.246Z,23.97
2019-04-21T16:42:56.238Z,24.35
2019-04-21T16:43:55.432Z,24.65
2019-04-21T16:44:55.028Z,24.93
2019-04-21T16:45:55.079Z,24.65
2019-04-21T16:46:55.723Z,24.84
2019-04-21T16:47:55.554Z,24.74
2019-04-21T16:48:55.927Z,24.74
2019-04-21T16:49:55.880Z,24.65
2019-04-21T16:50:55.403Z,25.61
2019-04-21T16:51:56.112Z,25.61
2019-04-21T16:52:56.222Z,25.13
2019-04-21T16:53:55.687Z,25.13
2019-04-21T16:54:56.060Z,25.23
2019-04-21T16:55:55.200Z,25.81
2019-04-21T16:56:55.085Z,25.90
2019-04-21T16:58:04.591Z,26.09
2019-04-21T16:58:55.094Z,25.81
2019-04-21T16:59:55.096Z,25.71
2019-04-21T17:01:01.706Z,26.09
2019-04-21T17:01:56.455Z,25.61
2019-04-21T17:02:56.564Z,25.99
2019-04-21T17:03:55.096Z,25.71
2019-04-21T17:04:56.257Z,25.70
2019-04-21T17:05:56.270Z,26.37
2019-04-21T17:06:55.499Z,25.81
2019-04-21T17:07:55.630Z,26.08
2019-04-21T17:08:56.654Z,26.28
2019-04-21T17:09:55.116Z,27.25
2019-04-21T17:11:03.024Z,28.13
2019-04-21T17:11:59.977Z,28.59
2019-04-21T17:12:56.053Z,28.69
2019-04-21T17:13:56.606Z,30.33
2019-04-21T17:15:10.392Z,31.49
2019-04-21T17:16:16.688Z,31.98
2019-04-21T17:17:16.179Z,31.98
2019-04-21T17:18:13.438Z,31.88
2019-04-21T17:19:05.115Z,32.17
2019-04-21T17:20:10.144Z,32.36
2019-04-21T17:21:00.583Z,32.65
2019-04-21T17:21:55.423Z,32.84
2019-04-21T17:22:55.578Z,32.94
2019-04-21T17:23:56.535Z,32.82
2019-04-21T17:24:56.007Z,33.14
2019-04-21T17:25:55.252Z,33.12
2019-04-21T17:26:55.305Z,33.04
2019-04-21T17:27:56.774Z,32.73
2019-04-21T17:28:56.475Z,32.75
2019-04-21T17:29:56.649Z,32.82
2019-04-21T17:30:55.187Z,33.02
2019-04-21T17:31:55.331Z,33.12
2019-04-21T17:32:55.520Z,33.22
2019-04-21T17:34:02.048Z,32.92
2019-04-21T17:34:56.233Z,33.02
2019-04-21T17:35:56.637Z,33.31
2019-04-21T17:36:55.207Z,33.31
2019-04-21T17:37:56.272Z,32.92
2019-04-21T17:38:55.756Z,33.31
2019-04-21T17:39:56.500Z,33.22
2019-04-21T17:40:57.085Z,33.22
2019-04-21T17:42:05.645Z,33.12
2019-04-21T17:43:02.086Z,33.22
2019-04-21T17:43:56.167Z,33.40
2019-04-21T17:44:55.333Z,33.50
2019-04-21T17:45:55.258Z,33.12
2019-04-21T17:47:01.526Z,33.12
2019-04-21T17:48:02.458Z,33.48
2019-04-21T17:48:55.243Z,33.29
2019-04-21T17:49:55.518Z,33.58
2019-04-21T17:50:55.671Z,33.58
2019-04-21T17:52:00.502Z,33.48
2019-04-21T17:53:00.807Z,33.68
2019-04-21T17:53:59.003Z,33.48
2019-04-21T17:55:07.589Z,33.48
2019-04-21T17:56:20.191Z,33.29
2019-04-21T17:57:18.285Z,34.16
2019-04-21T17:58:11.570Z,34.16
2019-04-21T17:59:23.615Z,33.87
2019-04-21T18:00:27.061Z,34.16
2019-04-21T18:01:20.989Z,33.97
2019-04-21T18:02:17.506Z,34.55
2019-04-21T18:03:22.765Z,34.64
2019-04-21T18:04:15.447Z,35.03
2019-04-21T18:05:19.261Z,34.92
2019-04-21T18:06:06.291Z,35.40
2019-04-21T18:07:08.505Z,35.30
2019-04-21T18:08:21.409Z,35.30
2019-04-21T18:09:24.335Z,35.21
2019-04-21T18:10:17.477Z,35.69
2019-04-21T18:11:05.998Z,35.98
2019-04-21T18:12:10.805Z,36.07
2019-04-21T18:13:01.326Z,36.07
2019-04-21T18:13:55.584Z,36.46
2019-04-21T18:15:10.231Z,36.27
2019-04-21T18:16:08.304Z,36.75
2019-04-21T18:16:56.275Z,36.65
2019-04-21T18:17:56.496Z,37.13
2019-04-21T18:18:55.327Z,37.41
2019-04-21T18:19:57.206Z,37.21
2019-04-21T18:20:56.660Z,37.60
2019-04-21T18:21:59.834Z,37.70
2019-04-21T18:22:56.920Z,37.98
2019-04-21T18:24:05.669Z,37.89
2019-04-21T18:25:03.713Z,37.98
2019-04-21T18:26:04.158Z,38.37
2019-04-21T18:26:59.984Z,38.66
2019-04-21T18:27:56.567Z,38.95
2019-04-21T18:28:57.730Z,38.76
2019-04-21T18:29:55.338Z,39.03
2019-04-21T18:30:56.547Z,39.03
2019-04-21T18:31:56.304Z,39.22
2019-04-21T18:32:57.955Z,39.22
2019-04-21T18:34:03.459Z,39.51
2019-04-21T18:35:00.437Z,39.70
2019-04-21T18:35:58.092Z,39.89
2019-04-21T18:36:57.420Z,39.99
2019-04-21T18:38:04.443Z,40.28
2019-04-21T18:39:09.832Z,40.47
2019-04-21T18:40:05.326Z,40.66
2019-04-21T18:40:56.491Z,41.24
2019-04-21T18:42:15.339Z,41.24
2019-04-21T18:43:30.782Z,41.63
2019-04-21T18:44:27.070Z,41.53